createdAt,value
2023-08-25T00:00:00.239Z,0
2023-08-25T00:05:00.235Z,0
2023-08-25T00:10:00.239Z,0
2023-08-25T00:15:00.235Z,0
2023-08-25T00:20:00.237Z,0
2023-08-25T00:25:00.239Z,0
2023-08-25T00:30:00.324Z,0
2023-08-25T00:35:00.242Z,0
2023-08-25T00:45:00.232Z,0
2023-08-25T00:50:00.237Z,0
2023-08-25T00:55:00.271Z,0
2023-08-25T01:00:00.259Z,0
2023-08-25T01:05:00.249Z,0
2023-08-25T01:15:00.242Z,0
2023-08-25T01:20:00.257Z,0
2023-08-25T01:25:00.241Z,0
2023-08-25T01:30:00.248Z,0
2023-08-25T01:35:00.242Z,0
2023-08-25T01:40:00.255Z,0
2023-08-25T01:45:00.256Z,0
2023-08-25T01:50:00.238Z,0
2023-08-25T01:55:00.252Z,0
2023-08-25T02:00:00.219Z,0
2023-08-25T02:05:00.354Z,0
2023-08-25T02:10:00.260Z,0
2023-08-25T02:15:00.231Z,0
2023-08-25T02:20:00.254Z,0
2023-08-25T02:25:00.227Z,0
2023-08-25T02:30:00.250Z,0
2023-08-25T02:35:00.228Z,0
2023-08-25T02:40:00.234Z,0
2023-08-25T02:45:00.230Z,0
2023-08-25T02:50:00.236Z,0
2023-08-25T02:55:00.229Z,0
2023-08-25T03:00:00.231Z,0
2023-08-25T03:10:00.251Z,0
2023-08-25T03:15:00.239Z,0
2023-08-25T03:25:00.297Z,0
2023-08-25T03:30:00.250Z,0
2023-08-25T03:35:00.239Z,0
2023-08-25T04:00:00.242Z,0
2023-08-25T04:05:00.231Z,0
2023-08-25T04:10:00.238Z,0
2023-08-25T04:15:00.230Z,10
2023-08-25T04:20:00.238Z,17
2023-08-25T04:25:00.236Z,31
2023-08-25T04:35:00.226Z,75
2023-08-25T04:40:00.233Z,105
2023-08-25T04:45:00.233Z,146
2023-08-25T04:50:00.234Z,173
2023-08-25T04:55:00.250Z,160
2023-08-25T05:00:00.280Z,189
2023-08-25T05:05:00.233Z,264
2023-08-25T05:10:00.222Z,311
2023-08-25T05:15:00.282Z,311
2023-08-25T05:25:00.229Z,311
2023-08-25T05:30:00.294Z,311
2023-08-25T05:40:00.228Z,566
2023-08-25T05:45:00.229Z,717
2023-08-25T05:50:00.230Z,908
2023-08-25T06:00:00.233Z,1874
2023-08-25T06:10:00.291Z,3448
2023-08-25T06:15:00.307Z,4365
2023-08-25T06:30:00.253Z,3056
2023-08-25T06:40:00.244Z,1558
2023-08-25T06:45:00.233Z,1228
2023-08-25T06:50:00.251Z,1384
2023-08-25T07:10:00.278Z,984
2023-08-25T07:15:00.244Z,1618
2023-08-25T07:30:00.262Z,891
2023-08-25T07:35:00.231Z,700
2023-08-25T07:40:01.090Z,1469
2023-08-25T07:45:00.226Z,3095
2023-08-25T07:50:00.409Z,1826
2023-08-25T07:55:00.236Z,2059
2023-08-25T08:00:00.248Z,2601
2023-08-25T08:05:00.228Z,2601
2023-08-25T08:10:00.304Z,2929
2023-08-25T08:15:00.240Z,2929
2023-08-25T08:20:00.238Z,2605
2023-08-25T08:25:00.239Z,3332
2023-08-25T08:30:00.230Z,3753
2023-08-25T08:35:00.231Z,3327
2023-08-25T08:40:00.267Z,2002
2023-08-25T08:45:00.277Z,313
2023-08-25T08:50:00.251Z,114
2023-08-25T08:55:00.233Z,1344
2023-08-25T09:00:00.231Z,3211
2023-08-25T09:05:00.374Z,1887
2023-08-25T09:10:00.440Z,6727
2023-08-25T09:15:00.231Z,7082
2023-08-25T09:20:00.231Z,4079
2023-08-25T09:25:00.266Z,2215
2023-08-25T09:30:00.366Z,1549
2023-08-25T09:35:00.229Z,2224
2023-08-25T09:40:00.241Z,1971
2023-08-25T09:45:00.278Z,1965
2023-08-25T09:50:00.264Z,1750
2023-08-25T09:55:00.235Z,1362
2023-08-25T10:00:00.323Z,1067
2023-08-25T10:05:00.334Z,2069
2023-08-25T10:10:00.237Z,1237
2023-08-25T10:15:00.238Z,1237
2023-08-25T10:20:00.255Z,1247
2023-08-25T10:25:00.285Z,1394
2023-08-25T10:30:00.306Z,1057
2023-08-25T10:35:00.259Z,1381
2023-08-25T10:40:00.237Z,2003
2023-08-25T10:45:00.231Z,4343
2023-08-25T10:50:00.247Z,4396
2023-08-25T10:55:00.231Z,1971
2023-08-25T11:00:00.246Z,4771
2023-08-25T11:05:00.244Z,14191
2023-08-25T11:10:00.246Z,20272
2023-08-25T11:15:00.241Z,43662
2023-08-25T11:20:00.261Z,82357
2023-08-25T11:25:00.245Z,12120
2023-08-25T11:30:00.236Z,15413
2023-08-25T11:35:00.241Z,19779
2023-08-25T11:40:00.235Z,35473
2023-08-25T11:45:00.235Z,28510
2023-08-25T11:50:00.241Z,15933
2023-08-25T11:55:00.249Z,25840
2023-08-25T12:00:00.258Z,8249
2023-08-25T12:05:00.885Z,13839
2023-08-25T12:10:00.279Z,12139
2023-08-25T12:15:00.240Z,7198
2023-08-25T12:20:00.253Z,4383
2023-08-25T12:25:00.240Z,3354
2023-08-25T12:30:00.242Z,5856
2023-08-25T12:35:00.229Z,6557
2023-08-25T12:40:00.291Z,7440
2023-08-25T12:45:00.230Z,8343
2023-08-25T12:50:00.250Z,8368
2023-08-25T12:55:18.161Z,4777
2023-08-25T13:00:00.254Z,7298
2023-08-25T13:05:00.231Z,10385
2023-08-25T13:10:00.269Z,9493
2023-08-25T13:15:00.344Z,73570
2023-08-25T13:20:00.231Z,41295
2023-08-25T13:25:00.241Z,23632
2023-08-25T13:30:00.242Z,68565
2023-08-25T13:35:00.238Z,68565
2023-08-25T13:40:00.266Z,62777
2023-08-25T13:45:00.276Z,62431
2023-08-25T13:50:00.239Z,59375
2023-08-25T13:55:00.243Z,40383
2023-08-25T14:00:00.234Z,63782
2023-08-25T14:05:00.246Z,18664
2023-08-25T14:10:00.223Z,32322
2023-08-25T14:15:00.227Z,15318
2023-08-25T14:20:00.252Z,10483
2023-08-25T14:25:00.247Z,4933
2023-08-25T14:30:01.210Z,3442
2023-08-25T14:35:00.237Z,4403
2023-08-25T14:40:00.238Z,2978
2023-08-25T14:45:00.229Z,2659
2023-08-25T14:50:00.248Z,9211
2023-08-25T14:55:00.247Z,3658
2023-08-25T15:00:00.230Z,1936
2023-08-25T15:05:00.224Z,2182
2023-08-25T15:10:00.229Z,2501
2023-08-25T15:15:00.262Z,8360
2023-08-25T15:20:00.232Z,35958
2023-08-25T15:25:00.232Z,40588
2023-08-25T15:30:00.245Z,15664
2023-08-25T15:35:00.238Z,30889
2023-08-25T15:40:00.232Z,26248
2023-08-25T15:45:00.252Z,4178
2023-08-25T15:50:00.240Z,1456
2023-08-25T15:55:00.232Z,2857
2023-08-25T16:00:00.266Z,6157
2023-08-25T16:05:00.247Z,2523
2023-08-25T16:10:00.232Z,1973
2023-08-25T16:15:00.238Z,1753
2023-08-25T16:20:00.250Z,1996
2023-08-25T16:25:00.265Z,5665
2023-08-25T16:30:00.244Z,7188
2023-08-25T16:35:00.228Z,2967
2023-08-25T16:40:00.229Z,2025
2023-08-25T16:45:00.245Z,2559
2023-08-25T16:50:00.245Z,3663
2023-08-25T16:55:00.237Z,7110
2023-08-25T17:00:00.230Z,5508
2023-08-25T17:05:00.270Z,5508
2023-08-25T17:10:00.235Z,4878
2023-08-25T17:15:00.233Z,3407
2023-08-25T17:20:00.230Z,2091
2023-08-25T17:25:00.237Z,1857
2023-08-25T17:30:00.248Z,872
2023-08-25T17:35:00.230Z,448
2023-08-25T17:40:00.253Z,318
2023-08-25T17:45:00.238Z,505
2023-08-25T17:50:00.243Z,644
2023-08-25T17:55:00.240Z,726
2023-08-25T18:00:00.314Z,508
2023-08-25T18:05:00.231Z,430
2023-08-25T18:10:00.245Z,150
2023-08-25T18:15:00.254Z,122
2023-08-25T18:20:00.237Z,37
2023-08-25T18:25:00.264Z,64
2023-08-25T18:30:00.237Z,125
2023-08-25T18:35:00.244Z,125
2023-08-25T18:40:00.238Z,106
2023-08-25T18:45:00.237Z,64
2023-08-25T18:50:00.232Z,33
2023-08-25T18:55:00.238Z,19
2023-08-25T19:00:00.271Z,12
2023-08-25T19:05:00.238Z,12
2023-08-25T19:10:00.276Z,5
2023-08-25T19:15:00.239Z,5
2023-08-25T19:20:00.246Z,2
2023-08-25T19:25:00.232Z,2
2023-08-25T19:30:00.268Z,2
2023-08-25T19:35:00.232Z,2
2023-08-25T19:40:00.231Z,2
2023-08-25T19:45:00.238Z,2
2023-08-25T19:50:00.265Z,2
2023-08-25T19:55:00.245Z,2
2023-08-25T20:00:00.276Z,2
2023-08-25T20:05:00.230Z,2
2023-08-25T20:10:00.258Z,2
2023-08-25T20:15:00.240Z,0
2023-08-25T20:20:00.260Z,0
2023-08-25T20:25:00.251Z,0
2023-08-25T20:30:00.233Z,0
2023-08-25T20:35:00.233Z,0
2023-08-25T20:40:00.241Z,0
2023-08-25T20:45:00.249Z,0
2023-08-25T20:50:00.221Z,0
2023-08-25T20:55:00.238Z,0
2023-08-25T21:00:00.252Z,0
2023-08-25T21:05:00.248Z,0
2023-08-25T21:10:00.270Z,0
2023-08-25T21:15:00.237Z,0
2023-08-25T21:20:00.236Z,0
2023-08-25T21:25:00.232Z,0
2023-08-25T21:30:00.240Z,0
2023-08-25T21:35:00.224Z,0
2023-08-25T21:40:00.272Z,0
2023-08-25T21:45:00.240Z,0
2023-08-25T21:50:00.235Z,0
2023-08-25T21:55:00.233Z,0
2023-08-25T22:00:00.289Z,0
2023-08-25T22:05:00.233Z,0
2023-08-25T22:10:00.229Z,0
2023-08-25T22:15:00.239Z,0
2023-08-25T22:20:06.539Z,0
2023-08-25T22:25:00.241Z,0
2023-08-25T22:30:00.276Z,0
2023-08-25T22:35:00.302Z,0
2023-08-25T22:40:00.230Z,0
2023-08-25T22:45:00.236Z,0
2023-08-25T22:50:00.232Z,0
2023-08-25T22:55:00.229Z,0
2023-08-25T23:00:00.262Z,0
2023-08-25T23:05:00.292Z,0
2023-08-25T23:10:00.266Z,0
2023-08-25T23:20:00.280Z,0
2023-08-25T23:25:00.243Z,0
2023-08-25T23:30:00.336Z,0
2023-08-25T23:35:00.266Z,0
2023-08-25T23:40:00.234Z,0
2023-08-25T23:45:00.273Z,0
2023-08-25T23:50:00.243Z,0
2023-08-25T23:55:00.228Z,0
